Time;durP1;ratioP1;P1;durP2;ratioP2;P2;SDS_P1;SDS_P2;PMS_P1;PMS_P2;Temp;Humidity;BMP_temperature;BMP_pressure;BME280_temperature;BME280_humidity;BME280_pressure;Samples;Min_cycle;Max_cycle;Signal;HPM_P1;HPM_P2
2022/10/02 00:01:18;;;;;;;5.30;2.47;;;12.70;99.90;;;;;;6302275;22;21045;-96
2022/10/02 00:03:48;;;;;;;6.43;2.70;;;12.70;99.90;;;;;;6302971;22;20615;-95
2022/10/02 00:06:20;;;;;;;5.33;2.90;;;12.50;99.90;;;;;;6303580;22;20596;-96
2022/10/02 00:08:51;;;;;;;3.47;2.13;;;12.70;99.90;;;;;;6276062;22;20605;-96
2022/10/02 00:11:22;;;;;;;7.00;2.53;;;12.70;99.90;;;;;;6303044;22;20584;-96
2022/10/02 00:14:21;;;;;;;6.33;3.10;;;12.70;99.90;;;;;;6303374;22;20635;-96
2022/10/02 00:16:53;;;;;;;5.20;2.93;;;12.80;99.90;;;;;;6301130;22;20616;-96
2022/10/02 00:19:32;;;;;;;4.50;2.60;;;12.80;99.90;;;;;;6249336;22;20607;-96
2022/10/02 00:32:02;;;;;;;5.23;1.90;;;12.90;99.90;;;;;;6244738;22;20629;-95
2022/10/02 02:41:30;;;;;;;3.97;1.43;;;13.60;99.90;;;;;;6235689;22;20609;-94
2022/10/02 02:49:12;;;;;;;4.40;1.93;;;13.80;99.90;;;;;;6276121;22;20632;-95
2022/10/02 03:04:42;;;;;;;4.80;1.60;;;14.10;99.90;;;;;;6241844;22;20631;-92
2022/10/02 03:07:16;;;;;;;7.17;2.20;;;13.80;99.90;;;;;;6273059;23;20584;-96
2022/10/02 03:09:52;;;;;;;3.43;1.20;;;13.70;99.90;;;;;;6272108;23;20582;-96
2022/10/02 03:12:32;;;;;;;5.20;2.30;;;13.80;99.90;;;;;;6270674;23;20585;-96
2022/10/02 03:15:18;;;;;;;2.50;1.50;;;13.70;99.90;;;;;;6271571;22;20542;-96
2022/10/02 03:17:58;;;;;;;11.17;1.90;;;13.70;99.90;;;;;;6268905;23;20597;-96
2022/10/02 03:20:38;;;;;;;7.73;1.90;;;13.70;99.90;;;;;;6269288;23;20578;-96
2022/10/02 03:23:12;;;;;;;5.90;1.87;;;13.80;99.90;;;;;;6271499;23;20940;-96
2022/10/02 03:25:45;;;;;;;4.40;1.70;;;13.70;99.90;;;;;;6270191;23;20518;-96
2022/10/02 03:28:18;;;;;;;9.40;2.53;;;13.70;99.90;;;;;;6271891;23;20548;-96
2022/10/02 03:30:48;;;;;;;4.93;1.70;;;13.60;99.90;;;;;;6272267;23;20530;-96
2022/10/02 03:33:18;;;;;;;3.17;1.80;;;13.60;99.90;;;;;;6271890;23;20624;-96
2022/10/02 03:35:49;;;;;;;9.37;2.90;;;13.60;99.90;;;;;;6270427;23;20585;-96
2022/10/02 03:38:18;;;;;;;7.07;2.10;;;13.50;99.90;;;;;;6271116;23;20667;-96
2022/10/02 03:40:58;;;;;;;10.13;2.60;;;13.40;99.90;;;;;;6270476;23;20645;-96
2022/10/02 03:43:30;;;;;;;9.67;1.93;;;13.50;99.90;;;;;;6269273;23;20589;-96
2022/10/02 03:45:57;;;;;;;3.97;1.90;;;13.40;99.90;;;;;;6270418;23;20570;-96
2022/10/02 03:48:25;;;;;;;3.97;2.07;;;13.40;99.90;;;;;;6270059;23;20604;-96
2022/10/02 03:50:53;;;;;;;3.90;1.60;;;13.40;99.90;;;;;;6267401;23;20585;-96
2022/10/02 03:53:24;;;;;;;7.50;2.07;;;13.50;99.90;;;;;;6270692;23;20581;-96
2022/10/02 03:55:57;;;;;;;3.90;1.40;;;13.50;99.90;;;;;;6275127;23;20622;-96
2022/10/02 06:26:09;;;;;;;2.70;1.30;;;13.40;99.90;;;;;;6172721;22;20618;-92
2022/10/02 06:49:51;;;;;;;5.13;2.10;;;13.40;99.90;;;;;;6236138;23;20762;-96
2022/10/02 07:00:10;;;;;;;8.90;6.70;;;13.20;99.90;;;;;;6199247;22;20625;-91
2022/10/02 07:14:14;;;;;;;6.83;3.73;;;13.10;99.90;;;;;;6281923;22;20628;-96
2022/10/02 07:17:10;;;;;;;5.70;3.80;;;13.30;99.90;;;;;;6292962;22;20589;-96
2022/10/02 07:26:04;;;;;;;7.60;2.43;;;13.60;99.90;;;;;;6272856;22;20616;-95
2022/10/02 07:28:56;;;;;;;5.90;2.40;;;13.40;99.90;;;;;;6298536;22;20537;-96
2022/10/02 07:31:48;;;;;;;8.97;4.30;;;13.40;99.90;;;;;;6295375;22;20573;-94
2022/10/02 07:34:28;;;;;;;4.30;2.60;;;13.40;99.90;;;;;;6298821;22;20583;-95
2022/10/02 07:37:06;;;;;;;7.23;2.00;;;13.40;99.90;;;;;;6289410;22;20560;-95
2022/10/02 07:39:53;;;;;;;4.90;2.40;;;13.50;99.90;;;;;;6256180;22;20647;-95
2022/10/02 07:42:50;;;;;;;3.50;2.30;;;13.50;99.90;;;;;;6284169;22;20605;-95
2022/10/02 07:45:40;;;;;;;6.17;2.33;;;13.50;99.90;;;;;;6285576;22;20608;-95
2022/10/02 07:48:22;;;;;;;5.20;2.57;;;13.50;99.90;;;;;;6284192;22;20623;-96
2022/10/02 07:51:45;;;;;;;2.90;2.10;;;13.60;99.90;;;;;;6284265;22;20580;-96
2022/10/02 07:54:09;;;;;;;5.00;2.67;;;13.60;99.90;;;;;;6283171;22;20576;-95
2022/10/02 07:56:37;;;;;;;2.37;1.30;;;13.70;99.90;;;;;;6281827;22;20750;-95
2022/10/02 07:59:10;;;;;;;5.50;1.70;;;13.70;99.90;;;;;;6285791;22;20968;-95
2022/10/02 08:01:40;;;;;;;5.83;2.60;;;13.80;99.90;;;;;;6282771;22;20597;-96
2022/10/02 08:04:12;;;;;;;5.60;2.70;;;13.80;99.90;;;;;;6286639;22;20584;-95
2022/10/02 08:06:41;;;;;;;5.83;1.90;;;13.80;99.90;;;;;;6286771;22;20591;-96
2022/10/02 08:09:16;;;;;;;7.47;3.10;;;13.80;99.90;;;;;;6286866;22;20576;-95
2022/10/02 08:11:49;;;;;;;7.07;2.63;;;13.90;99.90;;;;;;6285646;22;20521;-96
2022/10/02 08:14:27;;;;;;;9.93;3.10;;;13.90;99.90;;;;;;6282219;22;20577;-96
2022/10/02 08:17:01;;;;;;;5.20;1.97;;;13.90;99.90;;;;;;6280475;22;20597;-95
2022/10/02 08:19:40;;;;;;;6.07;1.63;;;14.00;99.90;;;;;;6282051;22;20608;-96
2022/10/02 08:22:21;;;;;;;6.30;2.33;;;14.00;99.90;;;;;;6258402;22;21202;-95
2022/10/02 08:25:04;;;;;;;4.63;2.40;;;13.90;99.90;;;;;;6294838;22;20640;-95
2022/10/02 08:27:49;;;;;;;3.60;1.83;;;14.10;99.90;;;;;;6289032;22;20668;-96
2022/10/02 08:32:57;;;;;;;4.03;1.83;;;14.10;99.90;;;;;;6288421;22;20576;-95
2022/10/02 08:35:36;;;;;;;3.90;1.70;;;14.10;99.90;;;;;;6284094;22;20613;-96
2022/10/02 08:38:33;;;;;;;9.37;3.30;;;14.10;99.90;;;;;;6299062;22;20572;-95
2022/10/02 08:41:39;;;;;;;6.17;4.80;;;14.20;99.90;;;;;;6299005;22;20580;-95
2022/10/02 08:44:53;;;;;;;32.83;29.73;;;14.30;99.90;;;;;;6289917;22;20660;-95
2022/10/02 08:51:11;;;;;;;5.43;3.33;;;14.40;99.90;;;;;;6289266;22;20581;-96
2022/10/02 09:08:08;;;;;;;7.07;3.70;;;14.20;99.90;;;;;;5162073;27;20808;-95
2022/10/02 09:11:04;;;;;;;8.10;3.90;;;14.90;99.90;;;;;;5141898;27;20635;-95
2022/10/02 09:13:53;;;;;;;7.07;3.90;;;15.20;99.90;;;;;;5131574;27;20644;-96
2022/10/02 09:16:29;;;;;;;6.20;3.03;;;15.30;99.90;;;;;;5134107;28;20651;-95
2022/10/02 09:19:01;;;;;;;3.37;2.50;;;15.10;99.90;;;;;;5143672;27;20628;-95
2022/10/02 09:21:55;;;;;;;6.47;3.00;;;15.10;99.90;;;;;;5143697;27;20642;-95
2022/10/02 09:25:00;;;;;;;4.53;2.70;;;15.20;99.90;;;;;;5138091;28;20615;-94
2022/10/02 09:28:03;;;;;;;2.63;2.40;;;15.00;99.90;;;;;;5131491;27;20699;-95
2022/10/02 09:31:08;;;;;;;3.77;2.70;;;15.40;99.90;;;;;;5137508;28;20646;-96
2022/10/02 09:34:07;;;;;;;11.00;3.20;;;15.50;99.90;;;;;;5139532;27;20706;-95
2022/10/02 09:37:27;;;;;;;7.93;3.00;;;16.00;99.90;;;;;;5142056;27;20684;-95
2022/10/02 09:40:30;;;;;;;3.23;2.53;;;16.30;99.90;;;;;;5152755;27;20641;-95
2022/10/02 09:43:33;;;;;;;5.60;3.40;;;16.50;99.90;;;;;;5141591;27;20657;-95
2022/10/02 09:46:25;;;;;;;4.17;2.40;;;16.50;99.90;;;;;;5147109;27;20630;-94
2022/10/02 09:49:33;;;;;;;5.73;2.77;;;16.60;99.90;;;;;;5143643;28;20670;-96
2022/10/02 09:52:34;;;;;;;3.17;2.47;;;16.70;99.90;;;;;;5128105;27;20789;-95
2022/10/02 09:59:16;;;;;;;5.20;3.00;;;16.60;99.90;;;;;;5127530;27;20619;-96
2022/10/02 10:02:05;;;;;;;4.47;2.13;;;16.80;99.90;;;;;;5143964;28;20721;-96
2022/10/02 10:51:54;;;;;;;5.37;2.20;;;15.80;99.90;;;;;;4244235;25;20658;-96
2022/10/02 11:05:01;;;;;;;3.00;1.37;;;15.90;99.90;;;;;;5161387;22;20662;-92
2022/10/02 11:07:51;;;;;;;1.30;1.20;;;15.80;99.90;;;;;;5139043;27;20614;-94
2022/10/02 11:10:31;;;;;;;1.03;0.80;;;15.60;99.90;;;;;;5139867;27;20607;-94
2022/10/02 11:13:53;;;;;;;1.30;1.20;;;15.60;99.90;;;;;;5128629;28;20655;-94
2022/10/02 11:16:42;;;;;;;1.57;1.37;;;15.60;99.90;;;;;;5108112;28;20700;-94
2022/10/02 11:19:39;;;;;;;1.97;1.00;;;15.70;99.90;;;;;;5103435;28;20622;-94
2022/10/02 11:22:48;;;;;;;1.07;0.97;;;15.90;99.90;;;;;;5114933;28;20620;-95
2022/10/02 11:25:45;;;;;;;2.67;1.60;;;16.00;99.90;;;;;;5132920;28;20703;-94
2022/10/02 11:28:45;;;;;;;1.33;1.10;;;16.30;99.90;;;;;;5117521;28;20616;-95
2022/10/02 11:31:38;;;;;;;2.10;1.90;;;16.30;99.90;;;;;;5115128;28;20628;-94
2022/10/02 12:31:17;;;;;;;2.47;2.27;;;15.30;99.90;;;;;;5128105;27;21210;-94
2022/10/02 12:33:53;;;;;;;1.37;0.60;;;15.40;99.90;;;;;;5106416;27;20621;-95
2022/10/02 12:36:42;;;;;;;0.87;0.80;;;15.30;99.90;;;;;;5146148;27;20726;-94
2022/10/02 12:39:22;;;;;;;1.90;0.63;;;15.10;99.90;;;;;;5097461;28;20667;-95
2022/10/02 12:42:05;;;;;;;4.33;2.70;;;14.90;99.90;;;;;;5102727;28;20711;-94
2022/10/02 12:45:05;;;;;;;1.07;0.97;;;14.70;99.90;;;;;;5087514;28;20628;-94
2022/10/02 12:48:01;;;;;;;1.20;1.10;;;14.60;99.90;;;;;;5088265;28;21202;-94
2022/10/02 12:50:46;;;;;;;2.70;1.57;;;14.70;99.90;;;;;;5105008;28;20759;-96
2022/10/02 12:53:59;;;;;;;1.07;1.07;;;14.70;99.90;;;;;;5077904;28;20613;-95
2022/10/02 12:56:57;;;;;;;1.07;0.97;;;14.80;99.90;;;;;;5064945;28;20667;-95
2022/10/02 12:59:31;;;;;;;0.77;0.73;;;14.80;99.90;;;;;;5100925;28;20728;-94
2022/10/02 13:02:27;;;;;;;1.33;0.80;;;14.90;99.90;;;;;;5114745;28;20611;-95
2022/10/02 13:05:25;;;;;;;1.53;1.03;;;14.40;99.90;;;;;;5074592;28;20659;-96
2022/10/02 13:08:24;;;;;;;3.70;0.83;;;14.60;99.90;;;;;;5088167;28;20625;-95
2022/10/02 13:11:00;;;;;;;1.30;1.20;;;14.60;99.90;;;;;;5088013;28;20656;-95
2022/10/02 13:14:03;;;;;;;1.20;1.10;;;14.60;99.90;;;;;;5074315;28;20708;-95
2022/10/02 13:16:51;;;;;;;1.03;1.00;;;14.50;99.90;;;;;;5094093;28;20751;-96
2022/10/02 13:19:30;;;;;;;0.80;0.80;;;14.60;99.90;;;;;;5092218;28;21009;-96
2022/10/02 13:22:07;;;;;;;0.73;0.73;;;14.60;99.90;;;;;;5095409;28;20639;-96
2022/10/02 13:24:57;;;;;;;0.50;0.50;;;14.60;99.90;;;;;;5089216;28;20646;-96
2022/10/02 13:27:36;;;;;;;0.63;0.63;;;14.60;99.90;;;;;;5094195;28;20639;-96
2022/10/02 13:30:13;;;;;;;0.53;0.53;;;14.60;99.90;;;;;;5096388;28;20643;-94
2022/10/02 13:33:17;;;;;;;0.60;0.60;;;14.60;99.90;;;;;;5094804;28;20616;-95
2022/10/02 13:35:59;;;;;;;1.10;1.00;;;14.60;99.90;;;;;;5059145;28;20635;-95
2022/10/02 13:38:50;;;;;;;0.40;0.37;;;14.60;99.90;;;;;;5091985;28;20639;-94
2022/10/02 13:41:27;;;;;;;1.00;0.90;;;14.60;99.90;;;;;;5076950;28;20617;-93
2022/10/02 13:44:07;;;;;;;0.63;0.57;;;14.70;99.90;;;;;;5095488;28;21356;-95
2022/10/02 13:46:50;;;;;;;1.23;0.50;;;14.80;99.90;;;;;;5102312;28;20637;-95
2022/10/02 13:49:27;;;;;;;1.03;0.50;;;15.00;99.90;;;;;;5104222;28;20655;-94
2022/10/02 13:52:02;;;;;;;0.40;0.40;;;15.20;99.90;;;;;;5099425;28;20615;-95
2022/10/02 13:54:56;;;;;;;0.57;0.57;;;15.20;99.90;;;;;;5096934;28;20641;-95
2022/10/02 13:57:38;;;;;;;0.83;0.83;;;15.60;99.90;;;;;;5100381;28;20662;-96
2022/10/02 14:00:24;;;;;;;1.13;0.83;;;15.80;99.90;;;;;;5109097;28;20635;-96
2022/10/02 14:03:05;;;;;;;0.70;0.40;;;15.80;99.90;;;;;;5086474;28;20605;-96
2022/10/02 14:05:42;;;;;;;0.40;0.40;;;15.70;99.90;;;;;;5097836;28;20750;-95
2022/10/02 14:08:34;;;;;;;0.63;0.50;;;15.50;99.90;;;;;;5109163;28;20631;-96
2022/10/02 14:11:16;;;;;;;0.70;0.70;;;15.40;99.90;;;;;;5071689;28;20607;-95
2022/10/02 14:13:58;;;;;;;0.60;0.60;;;15.40;99.90;;;;;;5100662;28;20639;-95
2022/10/02 14:16:44;;;;;;;0.63;0.63;;;15.40;99.90;;;;;;5084705;28;20620;-95
2022/10/02 14:19:25;;;;;;;0.83;0.83;;;15.40;99.90;;;;;;5100867;28;20760;-95
2022/10/02 14:22:32;;;;;;;0.70;0.70;;;15.30;99.90;;;;;;5109509;28;20639;-96
2022/10/02 14:25:19;;;;;;;1.03;1.00;;;15.20;99.90;;;;;;5099518;28;20628;-95
2022/10/02 14:28:12;;;;;;;0.90;0.83;;;15.10;99.90;;;;;;5109217;28;20632;-96
2022/10/02 14:30:58;;;;;;;0.50;0.50;;;15.00;99.90;;;;;;5102431;28;20642;-96
2022/10/02 14:33:57;;;;;;;0.50;0.50;;;14.90;99.90;;;;;;5102373;28;20687;-93
2022/10/02 14:36:30;;;;;;;0.47;0.47;;;15.00;99.90;;;;;;5118144;28;20795;-95
2022/10/02 14:39:21;;;;;;;0.73;0.50;;;15.00;99.90;;;;;;5115994;28;20666;-95
2022/10/02 14:42:14;;;;;;;0.43;0.40;;;15.00;99.90;;;;;;5092609;28;20624;-94
2022/10/02 14:44:59;;;;;;;0.63;0.60;;;15.20;99.90;;;;;;5099809;28;20938;-94
2022/10/02 14:47:56;;;;;;;0.50;0.50;;;15.40;99.90;;;;;;5095375;28;20701;-95
2022/10/02 14:51:05;;;;;;;0.53;0.40;;;15.40;99.90;;;;;;5101337;28;20644;-94
2022/10/02 14:53:55;;;;;;;2.83;0.40;;;15.50;99.90;;;;;;5097704;28;20711;-94
2022/10/02 14:57:00;;;;;;;0.50;0.50;;;15.30;99.90;;;;;;5082272;28;20671;-95
2022/10/02 14:59:58;;;;;;;1.80;0.67;;;15.10;99.90;;;;;;5099193;28;20675;-93
2022/10/02 15:07:52;;;;;;;1.43;1.03;;;15.20;99.90;;;;;;5100822;28;20660;-94
2022/10/02 15:10:22;;;;;;;2.10;0.60;;;15.00;99.90;;;;;;5102643;28;20930;-95
2022/10/02 15:12:54;;;;;;;1.23;0.70;;;14.90;99.90;;;;;;5104913;28;20623;-94
2022/10/02 15:15:28;;;;;;;1.00;0.90;;;14.70;99.90;;;;;;5099605;28;20601;-95
2022/10/02 15:18:24;;;;;;;0.77;0.70;;;14.50;99.90;;;;;;5096130;28;20786;-96
2022/10/02 15:20:59;;;;;;;1.00;1.00;;;14.40;99.90;;;;;;5097444;28;20612;-95
2022/10/02 15:23:42;;;;;;;2.20;1.60;;;14.40;99.90;;;;;;5100445;28;20616;-95
2022/10/02 15:26:45;;;;;;;1.20;1.10;;;14.00;99.90;;;;;;5105382;28;20998;-95
2022/10/02 15:29:25;;;;;;;0.70;0.70;;;14.30;99.90;;;;;;5079436;28;20688;-94
2022/10/02 15:55:13;;;;;;;2.50;2.30;;;13.50;99.90;;;;;;5041305;28;20698;-96
2022/10/02 15:57:54;;;;;;;5.67;5.27;;;13.60;99.90;;;;;;5041074;28;20697;-94
2022/10/02 16:03:18;;;;;;;9.00;8.33;;;13.70;99.90;;;;;;5106832;28;20646;-94
2022/10/02 16:05:55;;;;;;;7.87;7.37;;;13.80;99.90;;;;;;5097954;28;20630;-94
2022/10/02 16:09:07;;;;;;;5.13;4.63;;;13.70;99.90;;;;;;5097079;28;20683;-94
2022/10/02 16:15:10;;;;;;;3.83;2.50;;;13.70;99.90;;;;;;5093664;28;21115;-95
2022/10/02 16:18:05;;;;;;;2.80;2.13;;;13.70;99.90;;;;;;5106300;28;20782;-95
2022/10/02 16:21:11;;;;;;;1.60;1.50;;;13.50;99.90;;;;;;5105466;28;20608;-96
2022/10/02 16:27:22;;;;;;;2.70;2.50;;;13.60;99.90;;;;;;5115516;28;20663;-96
2022/10/02 16:30:07;;;;;;;2.30;2.10;;;13.40;99.90;;;;;;5089430;28;20613;-96
2022/10/02 16:33:12;;;;;;;2.70;2.50;;;13.60;99.90;;;;;;5104519;28;20624;-95
2022/10/02 16:36:10;;;;;;;2.80;1.73;;;13.50;99.90;;;;;;5112906;28;20651;-96
2022/10/02 16:38:52;;;;;;;3.83;2.43;;;13.50;99.90;;;;;;5095580;28;20636;-96
2022/10/02 16:41:37;;;;;;;5.97;5.47;;;13.30;99.90;;;;;;5112732;28;20624;-96
2022/10/02 16:44:35;;;;;;;7.37;6.67;;;13.40;99.90;;;;;;5103318;28;20665;-96
2022/10/02 16:47:33;;;;;;;6.97;6.37;;;13.50;99.90;;;;;;5100260;28;20659;-95
2022/10/02 16:53:03;;;;;;;7.17;6.57;;;13.40;99.90;;;;;;5108880;28;20632;-95
2022/10/02 16:55:41;;;;;;;5.73;4.87;;;13.40;99.90;;;;;;5093835;28;20634;-96
2022/10/02 16:58:29;;;;;;;5.40;4.20;;;13.40;99.90;;;;;;5104998;28;20656;-96
2022/10/02 17:01:08;;;;;;;6.43;5.93;;;13.40;99.90;;;;;;5105977;28;20679;-96
2022/10/02 17:03:46;;;;;;;4.77;4.27;;;13.30;99.90;;;;;;5100354;28;20674;-96
2022/10/02 17:06:23;;;;;;;3.80;3.60;;;13.30;99.90;;;;;;5095158;28;20726;-96
2022/10/02 17:09:04;;;;;;;2.70;2.50;;;12.90;99.90;;;;;;5096238;28;20635;-96
2022/10/02 17:12:10;;;;;;;2.93;2.73;;;13.30;99.90;;;;;;5104794;28;20616;-96
2022/10/02 17:14:45;;;;;;;2.87;2.60;;;13.30;99.90;;;;;;5113882;28;20623;-96
2022/10/02 17:17:28;;;;;;;3.30;3.10;;;13.20;99.90;;;;;;5113317;28;20690;-96
2022/10/02 17:20:16;;;;;;;3.10;2.90;;;13.20;99.90;;;;;;5102130;28;20635;-95
2022/10/02 17:22:54;;;;;;;3.50;3.20;;;13.20;99.90;;;;;;5112186;28;20599;-96
2022/10/02 17:25:28;;;;;;;3.03;2.83;;;13.10;99.90;;;;;;5120579;28;20659;-95
2022/10/02 17:28:05;;;;;;;3.63;3.43;;;13.10;99.90;;;;;;5108061;28;20616;-96
2022/10/02 17:30:55;;;;;;;5.63;5.23;;;13.20;99.90;;;;;;5121994;28;20658;-95
2022/10/02 17:33:44;;;;;;;5.50;5.10;;;13.10;99.90;;;;;;5122308;28;20620;-96
2022/10/02 17:36:29;;;;;;;4.60;3.87;;;13.10;99.90;;;;;;5113858;27;20652;-96
2022/10/02 17:39:27;;;;;;;4.57;4.20;;;13.00;99.90;;;;;;5113698;28;20616;-95
2022/10/02 17:42:18;;;;;;;4.77;4.47;;;13.20;99.90;;;;;;5112886;28;20651;-95
2022/10/02 17:44:58;;;;;;;5.03;4.70;;;13.10;99.90;;;;;;5117600;28;20620;-95
2022/10/02 17:47:49;;;;;;;5.20;4.80;;;13.10;99.90;;;;;;5119302;28;20655;-96
2022/10/02 19:07:41;;;;;;;7.00;6.50;;;12.70;99.90;;;;;;695005;22;20972;-94
2022/10/02 19:10:43;;;;;;;6.30;5.90;;;12.90;99.90;;;;;;5025402;28;20639;-96
2022/10/02 19:16:39;;;;;;;7.10;6.60;;;12.80;99.90;;;;;;5032192;28;20643;-96
2022/10/02 19:30:55;;;;;;;6.30;5.90;;;12.80;99.90;;;;;;5025018;28;20703;-96
2022/10/02 19:33:40;;;;;;;6.93;6.43;;;12.80;99.90;;;;;;5023015;28;20642;-96
2022/10/02 19:36:19;;;;;;;5.97;5.57;;;12.80;99.90;;;;;;5026491;28;20747;-95
2022/10/02 19:38:54;;;;;;;8.13;7.53;;;12.70;99.90;;;;;;5027031;28;20655;-95
2022/10/02 19:41:41;;;;;;;8.20;7.60;;;12.80;99.90;;;;;;5024965;28;20631;-96
2022/10/02 19:50:53;;;;;;;7.03;6.43;;;12.80;99.90;;;;;;5049407;28;20670;-96
2022/10/02 19:53:28;;;;;;;7.00;6.53;;;12.80;99.90;;;;;;5048269;28;20623;-96
2022/10/02 19:56:51;;;;;;;8.23;7.53;;;12.70;99.90;;;;;;5034469;28;20696;-96
2022/10/02 19:59:43;;;;;;;8.10;7.50;;;12.80;99.90;;;;;;5040141;28;21201;-96
2022/10/02 20:02:49;;;;;;;7.77;6.73;;;12.80;99.90;;;;;;5055817;28;20548;-96
2022/10/02 20:34:39;;;;;;;2.93;2.70;;;13.00;99.90;;;;;;5079673;28;20677;-95
2022/10/02 20:37:15;;;;;;;3.30;3.00;;;12.80;99.90;;;;;;5089694;28;20660;-96
2022/10/02 20:45:03;;;;;;;3.03;2.83;;;12.80;99.90;;;;;;5059320;22;20690;-96
2022/10/02 21:01:20;;;;;;;4.17;3.87;;;12.80;99.90;;;;;;5071476;28;20735;-96
2022/10/02 21:04:27;;;;;;;4.23;3.93;;;12.80;99.90;;;;;;5072511;28;21003;-96
2022/10/02 21:07:44;;;;;;;5.00;4.60;;;12.80;99.90;;;;;;5027029;28;20706;-96
